Time;durP1;ratioP1;P1;durP2;ratioP2;P2;SDS_P1;SDS_P2;PMS_P1;PMS_P2;Temp;Humidity;BMP_temperature;BMP_pressure;BME280_temperature;BME280_humidity;BME280_pressure;Samples;Min_cycle;Max_cycle;Signal;HPM_P1;HPM_P2
2021/12/07 00:01:24;;;;;;;26.90;14.05;;;;;;;;;;5169659;27;20069;-66
2021/12/07 00:03:51;;;;;;;25.13;13.40;;;;;;;;;;5151673;27;20054;-65
2021/12/07 00:06:20;;;;;;;30.15;15.23;;;;;;;;;;5153035;27;20038;-66
2021/12/07 00:08:49;;;;;;;25.73;13.85;;;;;;;;;;5171267;27;20158;-66
2021/12/07 00:11:15;;;;;;;29.38;15.02;;;;;;;;;;5165812;27;20039;-65
2021/12/07 00:13:42;;;;;;;28.45;14.55;;;;;;;;;;5153453;27;20568;-65
2021/12/07 00:16:09;;;;;;;28.45;14.13;;;;;;;;;;5179360;27;20096;-65
2021/12/07 00:18:45;;;;;;;25.30;13.88;;;;;;;;;;5178452;27;20038;-65
2021/12/07 00:21:11;;;;;;;24.52;13.05;;;;;;;;;;5141397;27;20064;-67
2021/12/07 00:23:38;;;;;;;27.27;13.98;;;;;;;;;;5134274;27;20066;-65
2021/12/07 00:26:04;;;;;;;30.42;14.68;;;;;;;;;;5137433;27;20063;-65
2021/12/07 00:28:30;;;;;;;28.80;13.70;;;;;;;;;;5175152;27;20055;-65
2021/12/07 00:31:07;;;;;;;27.80;14.25;;;;;;;;;;5167247;27;20504;-66
2021/12/07 00:33:41;;;;;;;27.65;14.15;;;;;;;;;;5148159;27;20034;-65
2021/12/07 00:36:08;;;;;;;29.85;13.32;;;;;;;;;;5167685;27;20047;-65
2021/12/07 00:38:34;;;;;;;36.75;15.35;;;;;;;;;;5168545;27;20053;-65
2021/12/07 00:41:01;;;;;;;32.50;14.48;;;;;;;;;;5166904;27;20035;-66
2021/12/07 00:43:28;;;;;;;31.75;14.30;;;;;;;;;;5166242;27;20126;-66
2021/12/07 00:45:57;;;;;;;29.80;14.07;;;;;;;;;;5155577;27;20088;-67
2021/12/07 00:48:23;;;;;;;32.83;14.65;;;;;;;;;;5141220;27;20453;-65
2021/12/07 00:50:49;;;;;;;31.75;15.05;;;;;;;;;;5159464;27;20046;-66
2021/12/07 00:53:16;;;;;;;29.40;15.30;;;;;;;;;;5156980;27;20548;-66
2021/12/07 00:55:44;;;;;;;31.67;14.88;;;;;;;;;;5155706;27;20065;-66
2021/12/07 00:58:18;;;;;;;36.08;16.75;;;;;;;;;;5142003;27;20134;-66
2021/12/07 01:00:45;;;;;;;48.88;17.25;;;;;;;;;;5156950;27;20049;-66
2021/12/07 01:03:11;;;;;;;31.77;15.88;;;;;;;;;;5158347;27;20045;-66
2021/12/07 01:05:39;;;;;;;31.63;15.90;;;;;;;;;;5155704;27;20042;-66
2021/12/07 01:27:04;;;;;;;54.03;17.55;;;;;;;;;;5145026;27;20075;-66
2021/12/07 01:29:30;;;;;;;98.07;25.40;;;;;;;;;;5143965;27;20567;-65
2021/12/07 01:45:16;;;;;;;30.63;15.00;;;;;;;;;;5122318;27;20043;-65
2021/12/07 01:50:35;;;;;;;28.85;13.75;;;;;;;;;;5139654;27;20094;-66
2021/12/07 01:57:45;;;;;;;33.17;15.25;;;;;;;;;;5140499;27;20055;-66
2021/12/07 02:01:04;;;;;;;31.90;15.07;;;;;;;;;;5119939;27;20050;-66
2021/12/07 02:03:30;;;;;;;32.63;14.95;;;;;;;;;;5138085;27;20051;-66
2021/12/07 02:05:56;;;;;;;31.88;14.82;;;;;;;;;;5138465;28;20039;-67
2021/12/07 02:08:23;;;;;;;33.28;15.23;;;;;;;;;;5120202;28;20043;-66
2021/12/07 02:10:52;;;;;;;37.10;16.75;;;;;;;;;;5138460;28;20179;-66
2021/12/07 02:13:23;;;;;;;;;;;;;;;;;;5138340;28;20086;-66
2021/12/07 02:15:49;;;;;;;31.83;14.38;;;;;;;;;;5138510;28;19919;-66
2021/12/07 02:18:15;;;;;;;33.65;16.10;;;;;;;;;;5138479;28;20050;-66
2021/12/07 02:20:45;;;;;;;33.33;15.68;;;;;;;;;;5138593;28;20036;-66
2021/12/07 02:23:11;;;;;;;38.28;16.45;;;;;;;;;;5120118;28;20043;-65
2021/12/07 02:25:38;;;;;;;33.72;15.52;;;;;;;;;;5121478;27;20050;-66
2021/12/07 02:28:11;;;;;;;31.17;15.07;;;;;;;;;;5141569;27;20039;-67
2021/12/07 02:30:37;;;;;;;31.80;15.13;;;;;;;;;;5123935;27;20058;-65
2021/12/07 02:33:03;;;;;;;34.00;16.10;;;;;;;;;;5123019;27;20058;-66
2021/12/07 02:35:29;;;;;;;35.38;16.33;;;;;;;;;;5123335;27;20047;-66
2021/12/07 02:37:57;;;;;;;35.00;15.82;;;;;;;;;;5142805;27;20050;-66
2021/12/07 02:40:23;;;;;;;31.40;14.70;;;;;;;;;;5142571;27;20047;-66
2021/12/07 02:42:49;;;;;;;38.53;16.80;;;;;;;;;;5142769;27;20054;-66
2021/12/07 02:45:15;;;;;;;33.90;15.23;;;;;;;;;;5141867;27;20600;-66
2021/12/07 02:47:41;;;;;;;33.63;15.05;;;;;;;;;;5142065;27;20043;-65
2021/12/07 02:50:08;;;;;;;30.80;14.75;;;;;;;;;;5141433;27;20095;-64
2021/12/07 02:52:34;;;;;;;36.55;16.50;;;;;;;;;;5142457;27;20058;-65
2021/12/07 02:55:01;;;;;;;30.25;14.90;;;;;;;;;;5142804;27;20043;-66
2021/12/07 02:57:30;;;;;;;35.10;16.65;;;;;;;;;;5123802;27;20127;-65
2021/12/07 03:00:06;;;;;;;33.67;16.00;;;;;;;;;;5141795;27;20043;-65
2021/12/07 03:02:37;;;;;;;36.47;17.08;;;;;;;;;;5123632;27;20043;-66
2021/12/07 03:05:14;;;;;;;35.97;16.08;;;;;;;;;;5143199;27;20508;-66
2021/12/07 03:26:26;;;;;;;44.85;20.40;;;;;;;;;;5117665;27;20484;-67
2021/12/07 03:28:54;;;;;;;41.20;19.10;;;;;;;;;;5148657;27;20054;-67
2021/12/07 03:31:21;;;;;;;66.05;21.42;;;;;;;;;;5149728;27;20043;-66
2021/12/07 03:33:47;;;;;;;50.13;18.98;;;;;;;;;;5149095;27;20061;-67
2021/12/07 03:36:13;;;;;;;38.97;18.73;;;;;;;;;;5150359;27;20071;-66
2021/12/07 03:38:40;;;;;;;41.78;19.33;;;;;;;;;;5148852;27;20103;-66
2021/12/07 03:41:06;;;;;;;42.40;20.05;;;;;;;;;;5130849;27;20039;-67
2021/12/07 03:43:32;;;;;;;45.90;20.63;;;;;;;;;;5149363;27;20043;-66
2021/12/07 03:45:59;;;;;;;42.45;19.00;;;;;;;;;;5148781;27;20453;-66
2021/12/07 03:48:26;;;;;;;44.05;19.17;;;;;;;;;;5146121;27;20047;-66
2021/12/07 03:50:52;;;;;;;44.40;19.85;;;;;;;;;;5145442;27;20042;-65
2021/12/07 03:53:18;;;;;;;45.22;20.20;;;;;;;;;;5145336;27;20051;-66
2021/12/07 03:55:44;;;;;;;44.88;20.00;;;;;;;;;;5145943;27;20043;-65
2021/12/07 03:58:10;;;;;;;47.30;19.67;;;;;;;;;;5145492;27;20104;-66
2021/12/07 04:00:38;;;;;;;48.83;20.20;;;;;;;;;;5145843;27;20039;-66
2021/12/07 04:03:07;;;;;;;39.65;18.92;;;;;;;;;;5127117;27;20043;-66
2021/12/07 04:05:34;;;;;;;44.97;20.35;;;;;;;;;;5110481;27;20039;-66
2021/12/07 04:08:00;;;;;;;43.95;19.83;;;;;;;;;;5126591;27;20050;-66
2021/12/07 04:10:26;;;;;;;49.97;21.17;;;;;;;;;;5143852;27;20499;-66
2021/12/07 04:12:53;;;;;;;46.78;20.25;;;;;;;;;;5124223;27;20492;-66
2021/12/07 04:15:19;;;;;;;42.72;19.60;;;;;;;;;;5123566;27;20043;-66
2021/12/07 04:17:45;;;;;;;44.33;18.80;;;;;;;;;;5143026;27;20043;-65
2021/12/07 04:20:12;;;;;;;47.75;20.50;;;;;;;;;;5124874;27;20074;-66
2021/12/07 04:22:38;;;;;;;45.83;20.13;;;;;;;;;;5124760;27;20050;-67
2021/12/07 04:25:06;;;;;;;44.28;19.17;;;;;;;;;;5125230;27;20043;-66
2021/12/07 04:27:37;;;;;;;49.47;19.85;;;;;;;;;;5144006;27;20043;-67
2021/12/07 04:30:04;;;;;;;44.47;18.90;;;;;;;;;;5143950;27;20168;-66
2021/12/07 04:32:30;;;;;;;52.35;21.48;;;;;;;;;;5144050;27;20035;-66
2021/12/07 04:34:56;;;;;;;56.60;21.52;;;;;;;;;;5144716;27;20042;-65
2021/12/07 04:37:22;;;;;;;53.17;22.73;;;;;;;;;;5127054;27;20465;-65
2021/12/07 04:39:48;;;;;;;55.45;22.00;;;;;;;;;;5128740;27;20050;-66
2021/12/07 04:42:15;;;;;;;52.63;20.55;;;;;;;;;;5146794;27;20051;-65
2021/12/07 04:44:49;;;;;;;52.40;21.70;;;;;;;;;;5128182;27;20062;-65
2021/12/07 04:47:23;;;;;;;52.15;20.60;;;;;;;;;;5127578;27;20055;-65
2021/12/07 04:50:17;;;;;;;53.20;21.52;;;;;;;;;;5145013;27;20103;-65
2021/12/07 04:58:07;;;;;;;56.50;21.65;;;;;;;;;;5146288;27;20051;-66
2021/12/07 05:00:33;;;;;;;54.85;20.08;;;;;;;;;;5147059;27;20122;-65
2021/12/07 05:03:03;;;;;;;55.97;22.33;;;;;;;;;;5146157;27;20404;-66
2021/12/07 05:05:34;;;;;;;49.72;19.13;;;;;;;;;;5129059;27;20491;-66
2021/12/07 05:08:04;;;;;;;50.20;19.85;;;;;;;;;;5148976;27;20042;-67
2021/12/07 05:10:37;;;;;;;53.97;20.55;;;;;;;;;;5130216;27;20103;-66
2021/12/07 05:18:40;;;;;;;58.15;20.70;;;;;;;;;;5145392;27;20492;-65
2021/12/07 05:23:56;;;;;;;53.20;19.45;;;;;;;;;;5146787;27;20277;-66
2021/12/07 05:39:48;;;;;;;53.60;20.13;;;;;;;;;;5131870;27;20055;-65
2021/12/07 05:42:14;;;;;;;59.78;20.13;;;;;;;;;;5151982;27;20050;-65
2021/12/07 05:44:40;;;;;;;55.92;20.35;;;;;;;;;;5152453;27;20039;-66
2021/12/07 05:47:07;;;;;;;55.75;19.58;;;;;;;;;;5153236;27;20067;-65
2021/12/07 05:49:34;;;;;;;60.28;21.10;;;;;;;;;;5153533;27;20072;-65
2021/12/07 05:52:00;;;;;;;69.10;21.15;;;;;;;;;;5153219;27;20046;-65
2021/12/07 05:54:26;;;;;;;66.10;21.13;;;;;;;;;;5134354;27;20047;-65
2021/12/07 05:56:52;;;;;;;76.53;21.33;;;;;;;;;;5137056;27;20058;-66
2021/12/07 05:59:18;;;;;;;59.08;20.25;;;;;;;;;;5135628;27;20065;-65
2021/12/07 06:01:44;;;;;;;91.68;23.77;;;;;;;;;;5135382;28;20107;-65
2021/12/07 06:04:10;;;;;;;62.97;21.17;;;;;;;;;;5119035;28;20043;-65
2021/12/07 06:06:36;;;;;;;70.03;20.75;;;;;;;;;;5136407;28;20069;-64
2021/12/07 06:09:03;;;;;;;65.22;20.95;;;;;;;;;;5136424;28;20484;-65
2021/12/07 06:11:29;;;;;;;56.13;19.20;;;;;;;;;;5136209;28;20047;-65
2021/12/07 06:13:55;;;;;;;61.17;21.08;;;;;;;;;;5153629;28;20050;-66
2021/12/07 06:16:24;;;;;;;59.95;19.13;;;;;;;;;;5136196;28;20469;-65
2021/12/07 06:18:50;;;;;;;48.33;18.23;;;;;;;;;;5134954;28;20039;-64
2021/12/07 06:21:16;;;;;;;54.05;17.77;;;;;;;;;;5154056;28;20026;-64
2021/12/07 06:23:42;;;;;;;54.08;18.60;;;;;;;;;;5136481;28;20055;-65
2021/12/07 06:26:08;;;;;;;61.33;18.83;;;;;;;;;;5136281;28;20107;-65
2021/12/07 06:28:34;;;;;;;52.50;17.88;;;;;;;;;;5118034;28;20054;-65
2021/12/07 06:31:00;;;;;;;54.53;18.77;;;;;;;;;;5135065;28;20066;-65
2021/12/07 06:33:27;;;;;;;54.58;18.25;;;;;;;;;;5134821;28;20043;-65
2021/12/07 06:35:58;;;;;;;54.28;17.95;;;;;;;;;;5153410;28;20040;-65
2021/12/07 06:38:25;;;;;;;55.35;18.85;;;;;;;;;;5154235;28;20047;-64
2021/12/07 06:40:51;;;;;;;58.60;18.38;;;;;;;;;;5154373;28;20039;-65
2021/12/07 06:43:17;;;;;;;57.45;18.50;;;;;;;;;;5155051;28;20044;-66
2021/12/07 06:45:43;;;;;;;52.78;17.33;;;;;;;;;;5155991;28;20081;-64
2021/12/07 06:48:09;;;;;;;61.88;19.02;;;;;;;;;;5155376;28;20039;-65
2021/12/07 06:50:36;;;;;;;54.70;18.70;;;;;;;;;;5154095;28;20054;-65
2021/12/07 06:53:02;;;;;;;57.78;18.42;;;;;;;;;;5153496;28;20055;-64
2021/12/07 06:55:28;;;;;;;55.47;18.17;;;;;;;;;;5135817;28;20051;-64
2021/12/07 06:57:54;;;;;;;58.85;18.85;;;;;;;;;;5154455;28;20039;-64
2021/12/07 07:00:21;;;;;;;74.15;20.08;;;;;;;;;;5137007;28;20088;-66
2021/12/07 07:02:47;;;;;;;52.33;18.00;;;;;;;;;;5137570;28;20102;-66
2021/12/07 07:05:13;;;;;;;120.05;25.95;;;;;;;;;;5137068;28;20027;-65
2021/12/07 07:07:40;;;;;;;111.00;25.90;;;;;;;;;;5156114;28;20053;-65
2021/12/07 07:10:06;;;;;;;70.43;19.38;;;;;;;;;;5137550;28;20040;-64
2021/12/07 07:12:32;;;;;;;64.63;18.02;;;;;;;;;;5137934;27;20043;-65
2021/12/07 07:14:58;;;;;;;312.17;52.42;;;;;;;;;;5159667;27;20034;-64
2021/12/07 07:17:24;;;;;;;80.07;21.88;;;;;;;;;;5141200;27;20043;-64
2021/12/07 07:19:50;;;;;;;52.53;17.77;;;;;;;;;;5159383;27;20044;-64
2021/12/07 07:22:16;;;;;;;64.45;19.27;;;;;;;;;;5159832;27;20042;-64
2021/12/07 07:24:43;;;;;;;58.33;18.88;;;;;;;;;;5159844;27;20100;-64
2021/12/07 07:27:09;;;;;;;96.85;24.35;;;;;;;;;;5124424;27;20054;-64
2021/12/07 07:29:35;;;;;;;58.92;19.08;;;;;;;;;;5141976;27;20122;-64
2021/12/07 07:32:01;;;;;;;60.17;18.90;;;;;;;;;;5159719;27;20100;-65
2021/12/07 07:34:27;;;;;;;113.18;26.60;;;;;;;;;;5140284;27;20106;-65
2021/12/07 07:36:53;;;;;;;56.40;18.55;;;;;;;;;;5141521;27;20039;-65
2021/12/07 07:39:19;;;;;;;51.72;17.33;;;;;;;;;;5140688;27;20086;-65
2021/12/07 07:41:46;;;;;;;51.97;17.42;;;;;;;;;;5124339;27;20054;-65
2021/12/07 07:44:12;;;;;;;63.97;19.70;;;;;;;;;;5140219;27;20039;-65
2021/12/07 07:46:38;;;;;;;77.88;20.02;;;;;;;;;;5140979;27;20023;-64
2021/12/07 07:49:04;;;;;;;50.88;18.02;;;;;;;;;;5141747;27;20047;-64
2021/12/07 07:51:31;;;;;;;104.55;24.08;;;;;;;;;;5141180;27;20061;-65
2021/12/07 07:53:59;;;;;;;119.47;28.17;;;;;;;;;;5159920;27;20027;-64
2021/12/07 07:56:25;;;;;;;121.68;27.25;;;;;;;;;;5139838;27;20051;-64
2021/12/07 07:58:51;;;;;;;56.15;18.17;;;;;;;;;;5139495;27;20107;-64
2021/12/07 08:01:17;;;;;;;56.17;18.80;;;;;;;;;;5140503;27;20061;-65
2021/12/07 08:03:43;;;;;;;68.72;18.75;;;;;;;;;;5122269;27;20063;-66
2021/12/07 08:06:09;;;;;;;48.60;17.02;;;;;;;;;;5157746;27;20071;-65
2021/12/07 08:08:35;;;;;;;72.90;18.77;;;;;;;;;;5157267;27;20042;-64
2021/12/07 08:11:01;;;;;;;61.85;18.70;;;;;;;;;;5140063;27;20043;-65
2021/12/07 08:13:29;;;;;;;42.05;15.18;;;;;;;;;;5139418;27;20043;-65
2021/12/07 08:15:55;;;;;;;94.07;22.50;;;;;;;;;;5139802;27;20051;-65
2021/12/07 08:18:21;;;;;;;46.47;16.10;;;;;;;;;;5139332;27;20035;-66
2021/12/07 08:20:47;;;;;;;104.82;23.65;;;;;;;;;;5139589;27;20039;-65
2021/12/07 08:23:16;;;;;;;;;;;;;;;;;;5137834;27;20051;-65
2021/12/07 08:25:46;;;;;;;160.40;35.55;;;;;;;;;;5155897;27;19919;-66
2021/12/07 08:28:14;;;;;;;156.80;33.38;;;;;;;;;;5137256;27;20131;-65
2021/12/07 08:30:41;;;;;;;79.15;22.65;;;;;;;;;;5139549;27;20039;-65
2021/12/07 08:33:07;;;;;;;192.05;36.42;;;;;;;;;;5158194;27;20047;-65
2021/12/07 08:35:33;;;;;;;55.03;16.88;;;;;;;;;;5138400;27;20050;-64
2021/12/07 08:37:59;;;;;;;55.97;17.08;;;;;;;;;;5120529;27;20050;-65
2021/12/07 08:40:27;;;;;;;49.42;15.32;;;;;;;;;;5137066;27;20051;-64
2021/12/07 08:42:53;;;;;;;58.45;17.33;;;;;;;;;;5156650;27;20047;-64
2021/12/07 08:45:21;;;;;;;46.75;16.08;;;;;;;;;;5155504;27;20099;-65
2021/12/07 08:47:47;;;;;;;46.30;15.82;;;;;;;;;;5156810;27;20086;-67
2021/12/07 08:50:19;;;;;;;43.20;15.45;;;;;;;;;;5137941;27;20047;-68
2021/12/07 08:52:47;;;;;;;46.97;14.43;;;;;;;;;;5157045;27;20054;-65
2021/12/07 09:00:33;;;;;;;67.15;18.13;;;;;;;;;;5137276;27;20110;-66
2021/12/07 09:02:59;;;;;;;54.85;18.45;;;;;;;;;;5119487;27;20043;-66
2021/12/07 09:05:25;;;;;;;133.85;28.50;;;;;;;;;;5138124;27;20078;-65
2021/12/07 09:07:51;;;;;;;51.50;17.67;;;;;;;;;;5157032;27;20070;-66
2021/12/07 09:10:17;;;;;;;60.22;17.58;;;;;;;;;;5137888;27;20103;-66
2021/12/07 09:12:44;;;;;;;177.50;37.15;;;;;;;;;;5119475;27;20047;-65
2021/12/07 09:15:11;;;;;;;48.38;16.35;;;;;;;;;;5136213;27;20047;-66
2021/12/07 09:17:37;;;;;;;52.10;17.08;;;;;;;;;;5134822;27;20039;-66
2021/12/07 09:20:09;;;;;;;51.53;17.17;;;;;;;;;;5152541;27;20043;-66
2021/12/07 09:22:35;;;;;;;49.70;16.52;;;;;;;;;;5152707;27;20039;-66
2021/12/07 09:25:01;;;;;;;43.50;16.00;;;;;;;;;;5134230;27;20127;-66
2021/12/07 09:27:30;;;;;;;63.65;18.08;;;;;;;;;;5130992;27;20043;-66
2021/12/07 09:29:56;;;;;;;47.42;15.63;;;;;;;;;;5134865;27;20049;-66
2021/12/07 09:32:22;;;;;;;47.38;16.10;;;;;;;;;;5138493;27;20035;-67
2021/12/07 09:34:48;;;;;;;47.47;15.48;;;;;;;;;;5132782;27;20030;-67
2021/12/07 09:37:14;;;;;;;39.28;15.07;;;;;;;;;;5118620;27;20047;-66
2021/12/07 09:39:40;;;;;;;61.88;17.38;;;;;;;;;;5139196;27;20039;-66
2021/12/07 09:42:06;;;;;;;39.90;14.93;;;;;;;;;;5155355;27;20047;-67
2021/12/07 09:44:33;;;;;;;68.72;18.65;;;;;;;;;;5158377;27;20528;-67
2021/12/07 09:46:59;;;;;;;42.33;14.10;;;;;;;;;;5153757;27;20035;-67
2021/12/07 09:49:25;;;;;;;48.15;15.70;;;;;;;;;;5156106;27;20115;-66
2021/12/07 09:51:51;;;;;;;37.63;13.68;;;;;;;;;;5119736;27;20035;-64
2021/12/07 09:54:17;;;;;;;88.18;23.50;;;;;;;;;;5156882;27;20130;-67
2021/12/07 09:56:45;;;;;;;39.70;14.10;;;;;;;;;;5140518;27;20087;-67
2021/12/07 09:59:11;;;;;;;56.30;16.30;;;;;;;;;;5139549;27;20043;-67
2021/12/07 10:01:38;;;;;;;62.10;17.08;;;;;;;;;;5138127;27;20042;-66
2021/12/07 10:04:04;;;;;;;58.72;15.77;;;;;;;;;;5152896;27;20047;-67
2021/12/07 10:06:30;;;;;;;53.60;14.35;;;;;;;;;;5140936;27;20124;-66
2021/12/07 10:08:56;;;;;;;37.25;12.77;;;;;;;;;;5149022;27;20043;-67
2021/12/07 10:11:24;;;;;;;36.95;12.38;;;;;;;;;;5144003;27;20074;-67
2021/12/07 10:13:51;;;;;;;35.13;12.88;;;;;;;;;;5159926;27;20046;-66
2021/12/07 10:16:17;;;;;;;43.47;13.35;;;;;;;;;;5169530;27;20039;-67
2021/12/07 10:18:43;;;;;;;29.38;10.43;;;;;;;;;;5168659;27;20110;-67
2021/12/07 10:21:18;;;;;;;44.38;12.98;;;;;;;;;;5153110;27;20075;-67
2021/12/07 10:23:46;;;;;;;30.67;10.68;;;;;;;;;;5155563;27;20042;-66
2021/12/07 10:26:16;;;;;;;34.28;11.55;;;;;;;;;;5166156;27;20397;-67
2021/12/07 10:28:42;;;;;;;28.42;9.82;;;;;;;;;;5160024;27;20106;-65
2021/12/07 10:31:11;;;;;;;19.10;8.82;;;;;;;;;;5172137;27;20049;-66
2021/12/07 10:33:37;;;;;;;24.80;9.25;;;;;;;;;;5171429;27;20118;-68
2021/12/07 10:36:11;;;;;;;18.10;8.30;;;;;;;;;;5142845;27;20054;-65
2021/12/07 10:38:38;;;;;;;20.25;7.88;;;;;;;;;;5162240;27;20049;-66
2021/12/07 10:41:06;;;;;;;123.97;24.67;;;;;;;;;;5141651;27;20050;-66
2021/12/07 10:43:39;;;;;;;129.43;28.98;;;;;;;;;;5158491;27;20043;-66
2021/12/07 10:46:24;;;;;;;88.95;18.75;;;;;;;;;;5152446;27;20144;-67
2021/12/07 10:48:50;;;;;;;128.23;28.50;;;;;;;;;;5157890;27;20046;-67
2021/12/07 10:51:17;;;;;;;77.82;17.52;;;;;;;;;;5156881;27;20049;-66
2021/12/07 10:53:53;;;;;;;84.95;17.85;;;;;;;;;;5155114;27;20061;-65
2021/12/07 10:56:38;;;;;;;60.80;13.85;;;;;;;;;;5149356;27;20043;-66
2021/12/07 10:59:06;;;;;;;43.35;11.38;;;;;;;;;;5166618;27;20098;-66
2021/12/07 11:01:36;;;;;;;50.30;10.70;;;;;;;;;;5173053;27;20042;-67
2021/12/07 11:04:21;;;;;;;89.70;19.27;;;;;;;;;;5140497;27;20055;-66
2021/12/07 11:07:03;;;;;;;16.05;5.70;;;;;;;;;;5176429;27;20058;-67
2021/12/07 11:09:29;;;;;;;58.45;13.43;;;;;;;;;;5152664;27;20068;-67
2021/12/07 11:12:17;;;;;;;45.63;11.18;;;;;;;;;;5147668;27;20058;-67
2021/12/07 11:14:52;;;;;;;40.63;9.73;;;;;;;;;;5173689;27;20098;-66
2021/12/07 11:17:20;;;;;;;18.30;5.35;;;;;;;;;;5174458;27;20098;-66
2021/12/07 11:19:46;;;;;;;12.73;5.82;;;;;;;;;;5178023;27;20056;-66
2021/12/07 11:22:14;;;;;;;32.20;7.25;;;;;;;;;;5158364;27;20051;-66
2021/12/07 11:24:43;;;;;;;18.88;6.15;;;;;;;;;;5156875;27;20050;-67
2021/12/07 11:30:04;;;;;;;16.80;6.00;;;;;;;;;;5154175;27;20054;-67
2021/12/07 11:32:31;;;;;;;13.82;5.60;;;;;;;;;;5156072;27;20053;-65
2021/12/07 11:35:08;;;;;;;20.30;5.75;;;;;;;;;;5170508;27;20064;-65
2021/12/07 11:37:38;;;;;;;20.88;6.32;;;;;;;;;;5135246;27;20058;-66
2021/12/07 11:40:06;;;;;;;13.73;5.75;;;;;;;;;;5163056;27;20043;-66
2021/12/07 11:42:36;;;;;;;20.55;6.30;;;;;;;;;;5151475;27;20466;-66
2021/12/07 11:45:08;;;;;;;13.90;5.65;;;;;;;;;;5151352;27;20104;-66
2021/12/07 11:47:39;;;;;;;39.63;8.82;;;;;;;;;;5150913;27;20449;-65
2021/12/07 11:50:12;;;;;;;67.18;13.77;;;;;;;;;;5116942;27;20069;-65
2021/12/07 11:52:38;;;;;;;13.38;6.13;;;;;;;;;;5152803;27;20426;-65
2021/12/07 11:55:05;;;;;;;22.48;7.00;;;;;;;;;;5133522;27;20047;-65
2021/12/07 11:57:31;;;;;;;20.58;7.45;;;;;;;;;;5130451;28;20047;-66
2021/12/07 11:59:57;;;;;;;63.28;13.00;;;;;;;;;;5149223;27;20046;-65
2021/12/07 12:02:24;;;;;;;47.65;12.45;;;;;;;;;;5114993;27;20094;-67
2021/12/07 12:04:50;;;;;;;31.77;8.02;;;;;;;;;;5132413;27;20051;-65
2021/12/07 12:07:19;;;;;;;18.25;7.20;;;;;;;;;;5149615;27;20047;-65
2021/12/07 12:09:49;;;;;;;42.25;10.68;;;;;;;;;;5114940;27;20050;-65
2021/12/07 12:12:35;;;;;;;59.97;14.45;;;;;;;;;;5133464;27;20421;-65
2021/12/07 12:15:11;;;;;;;16.13;6.85;;;;;;;;;;5153459;27;20054;-65
2021/12/07 12:18:02;;;;;;;16.70;7.05;;;;;;;;;;5152248;27;20421;-66
2021/12/07 12:20:47;;;;;;;20.10;8.63;;;;;;;;;;5116436;27;20044;-65
2021/12/07 12:23:33;;;;;;;13.52;6.95;;;;;;;;;;5152773;27;20047;-66
2021/12/07 12:26:01;;;;;;;16.23;6.35;;;;;;;;;;5153620;27;20070;-65
2021/12/07 12:28:33;;;;;;;26.65;8.57;;;;;;;;;;5151857;27;20430;-66
2021/12/07 12:30:59;;;;;;;16.77;6.60;;;;;;;;;;5131548;27;20113;-67
2021/12/07 12:33:25;;;;;;;26.58;8.18;;;;;;;;;;5146097;27;20041;-66
2021/12/07 12:35:53;;;;;;;30.02;8.07;;;;;;;;;;5145764;27;20045;-66
2021/12/07 12:38:24;;;;;;;44.88;10.27;;;;;;;;;;5147987;27;20039;-66
2021/12/07 12:41:01;;;;;;;27.25;7.78;;;;;;;;;;5129539;27;20079;-65
2021/12/07 12:43:49;;;;;;;32.08;8.85;;;;;;;;;;5148161;27;20055;-65
2021/12/07 12:46:18;;;;;;;25.02;7.03;;;;;;;;;;5147326;27;20035;-65
2021/12/07 12:49:06;;;;;;;21.23;7.00;;;;;;;;;;5148651;27;20043;-66
2021/12/07 12:51:44;;;;;;;33.30;8.52;;;;;;;;;;5150016;27;20379;-65
2021/12/07 12:54:11;;;;;;;28.75;8.45;;;;;;;;;;5131660;27;20043;-65
2021/12/07 12:56:39;;;;;;;16.15;6.90;;;;;;;;;;5147357;27;20048;-64
2021/12/07 12:59:07;;;;;;;48.22;11.95;;;;;;;;;;5146494;27;20465;-65
2021/12/07 13:01:40;;;;;;;18.08;7.07;;;;;;;;;;5127602;27;20103;-65
2021/12/07 13:04:13;;;;;;;20.05;8.15;;;;;;;;;;5146587;27;20031;-65
2021/12/07 13:06:46;;;;;;;38.58;10.40;;;;;;;;;;5146325;27;20047;-65
2021/12/07 13:09:22;;;;;;;18.83;6.70;;;;;;;;;;5147112;27;20047;-66
2021/12/07 13:11:52;;;;;;;16.08;7.00;;;;;;;;;;5125994;27;20054;-65
2021/12/07 13:14:24;;;;;;;15.38;7.97;;;;;;;;;;5144239;27;20162;-66
2021/12/07 13:16:50;;;;;;;23.45;7.80;;;;;;;;;;5146048;27;20132;-66
2021/12/07 13:19:16;;;;;;;19.85;6.95;;;;;;;;;;5147854;27;20479;-65
2021/12/07 13:21:44;;;;;;;18.88;7.63;;;;;;;;;;5128925;27;20272;-65
2021/12/07 13:24:15;;;;;;;15.60;6.55;;;;;;;;;;5112193;27;20461;-65
2021/12/07 13:26:44;;;;;;;28.42;8.32;;;;;;;;;;5144280;27;20072;-65
2021/12/07 13:29:14;;;;;;;16.48;7.25;;;;;;;;;;5144584;27;20438;-65
2021/12/07 13:31:44;;;;;;;16.63;6.22;;;;;;;;;;5127105;27;20036;-66
2021/12/07 13:34:11;;;;;;;24.95;8.45;;;;;;;;;;5143273;27;20043;-65
2021/12/07 13:36:46;;;;;;;22.27;8.63;;;;;;;;;;5126709;27;20046;-65
2021/12/07 13:39:16;;;;;;;273.30;43.55;;;;;;;;;;5125257;27;20031;-65
2021/12/07 13:42:06;;;;;;;47.58;12.07;;;;;;;;;;5125876;27;20098;-65
2021/12/07 13:44:35;;;;;;;31.52;9.90;;;;;;;;;;5119027;27;20119;-66
2021/12/07 13:47:12;;;;;;;17.73;8.55;;;;;;;;;;5143928;27;20092;-66
2021/12/07 13:49:40;;;;;;;26.35;9.93;;;;;;;;;;5143779;27;20099;-66
2021/12/07 13:52:14;;;;;;;22.88;9.45;;;;;;;;;;5141528;27;20039;-66
2021/12/07 13:54:43;;;;;;;29.70;10.82;;;;;;;;;;5123555;27;20049;-65
2021/12/07 13:57:12;;;;;;;29.38;14.40;;;;;;;;;;5126136;27;20035;-65
2021/12/07 13:59:41;;;;;;;29.83;13.18;;;;;;;;;;5139833;27;20042;-66
2021/12/07 14:02:07;;;;;;;31.77;15.38;;;;;;;;;;5138987;27;20439;-65
2021/12/07 14:04:33;;;;;;;36.47;23.20;;;;;;;;;;5119269;27;20039;-65
2021/12/07 14:06:59;;;;;;;33.38;15.52;;;;;;;;;;5138266;27;20043;-66
2021/12/07 14:09:25;;;;;;;29.83;13.80;;;;;;;;;;5138825;27;20058;-66
2021/12/07 14:11:53;;;;;;;38.55;16.83;;;;;;;;;;5121577;28;20047;-66
2021/12/07 14:14:20;;;;;;;31.50;15.77;;;;;;;;;;5140641;28;20046;-66
2021/12/07 14:16:49;;;;;;;45.25;14.75;;;;;;;;;;5137913;28;20043;-65
2021/12/07 14:19:15;;;;;;;51.70;16.75;;;;;;;;;;5120853;28;20382;-64
2021/12/07 14:21:43;;;;;;;57.28;15.02;;;;;;;;;;5122694;27;20039;-66
2021/12/07 14:24:15;;;;;;;24.98;11.32;;;;;;;;;;5146095;27;20050;-66
2021/12/07 14:26:41;;;;;;;23.88;11.63;;;;;;;;;;5149022;27;20127;-67
2021/12/07 14:29:12;;;;;;;32.33;13.35;;;;;;;;;;5147644;27;20046;-66
2021/12/07 14:31:42;;;;;;;36.40;13.98;;;;;;;;;;5131279;27;20043;-66
2021/12/07 14:34:12;;;;;;;44.70;14.05;;;;;;;;;;5131793;27;20126;-66
2021/12/07 14:36:45;;;;;;;35.70;12.70;;;;;;;;;;5149761;27;20146;-67
2021/12/07 14:39:50;;;;;;;38.40;14.40;;;;;;;;;;5151913;27;20088;-66
2021/12/07 14:42:17;;;;;;;23.33;11.68;;;;;;;;;;5072356;28;20099;-66
2021/12/07 14:44:45;;;;;;;25.85;12.15;;;;;;;;;;5089965;28;20048;-67
2021/12/07 14:47:12;;;;;;;31.13;12.18;;;;;;;;;;5074206;28;20135;-66
2021/12/07 14:49:43;;;;;;;32.65;13.15;;;;;;;;;;5070951;28;20561;-66
2021/12/07 14:52:13;;;;;;;27.98;12.63;;;;;;;;;;5068835;28;20036;-66
2021/12/07 14:54:39;;;;;;;29.13;13.00;;;;;;;;;;5086450;28;20048;-65
2021/12/07 14:57:06;;;;;;;31.00;13.27;;;;;;;;;;5071297;28;20040;-66
2021/12/07 14:59:34;;;;;;;45.80;14.23;;;;;;;;;;5089639;28;20061;-67
2021/12/07 15:02:01;;;;;;;37.05;13.35;;;;;;;;;;5087540;28;20048;-66
2021/12/07 15:04:30;;;;;;;28.73;12.90;;;;;;;;;;5069302;28;20048;-65
2021/12/07 15:07:00;;;;;;;32.55;13.32;;;;;;;;;;5070121;28;20152;-66
2021/12/07 15:09:27;;;;;;;28.75;13.43;;;;;;;;;;5084045;28;20060;-66
2021/12/07 15:11:54;;;;;;;51.75;16.85;;;;;;;;;;5090200;27;20044;-66
2021/12/07 15:14:22;;;;;;;32.03;14.75;;;;;;;;;;5146684;27;20059;-65
2021/12/07 15:16:48;;;;;;;45.93;17.63;;;;;;;;;;5107240;27;20071;-66
2021/12/07 15:19:15;;;;;;;42.42;16.85;;;;;;;;;;5125635;27;20047;-66
2021/12/07 15:21:41;;;;;;;33.35;15.82;;;;;;;;;;5129598;27;20043;-66
2021/12/07 15:24:09;;;;;;;50.80;26.80;;;;;;;;;;5151716;27;20047;-66
2021/12/07 15:26:36;;;;;;;49.38;19.42;;;;;;;;;;5149885;27;20098;-65
2021/12/07 15:29:04;;;;;;;49.28;18.33;;;;;;;;;;5150803;27;20043;-66
2021/12/07 15:31:32;;;;;;;45.15;18.45;;;;;;;;;;5151663;27;20039;-66
2021/12/07 15:33:59;;;;;;;38.22;18.20;;;;;;;;;;5150191;27;20039;-68
2021/12/07 15:36:26;;;;;;;52.38;19.45;;;;;;;;;;5151573;27;20073;-66
2021/12/07 15:39:22;;;;;;;43.10;19.77;;;;;;;;;;5132134;27;20397;-67
2021/12/07 15:41:49;;;;;;;52.50;20.52;;;;;;;;;;5115779;27;20058;-64
2021/12/07 15:44:17;;;;;;;45.35;18.10;;;;;;;;;;5113785;27;20047;-66
2021/12/07 15:46:53;;;;;;;43.90;19.77;;;;;;;;;;5113067;27;20188;-65
2021/12/07 15:49:23;;;;;;;45.15;18.88;;;;;;;;;;5148537;27;20337;-65
2021/12/07 15:51:51;;;;;;;49.90;19.40;;;;;;;;;;5128324;27;20045;-65
2021/12/07 15:54:17;;;;;;;36.35;18.10;;;;;;;;;;5128142;27;20115;-65
2021/12/07 15:56:43;;;;;;;41.58;19.85;;;;;;;;;;5127200;27;20073;-65
2021/12/07 15:59:13;;;;;;;40.55;18.98;;;;;;;;;;5127539;27;20054;-65
2021/12/07 16:01:40;;;;;;;45.60;19.50;;;;;;;;;;5130946;27;20452;-66